createdAt,value
2018-07-17T00:00:22.823Z,6.90
2018-07-17T00:02:51.847Z,7.03
2018-07-17T00:05:20.916Z,7.57
2018-07-17T00:07:50.293Z,6.70
2018-07-17T00:10:19.354Z,7.20
2018-07-17T00:12:48.439Z,7.03
2018-07-17T00:15:17.976Z,6.37
2018-07-17T00:17:46.906Z,6.90
2018-07-17T00:20:15.992Z,7.70
2018-07-17T00:22:45.996Z,6.70
2018-07-17T00:25:15.156Z,7.40
2018-07-17T00:27:44.164Z,7.80
2018-07-17T00:30:13.521Z,8.00
2018-07-17T00:32:42.555Z,7.83
2018-07-17T00:35:11.748Z,8.87
2018-07-17T00:37:40.838Z,8.80
2018-07-17T00:40:13.016Z,9.10
2018-07-17T00:42:42.212Z,8.93
2018-07-17T00:45:11.252Z,8.93
2018-07-17T00:47:40.497Z,8.33
2018-07-17T00:50:09.409Z,9.90
2018-07-17T00:52:38.361Z,9.50
2018-07-17T00:55:07.562Z,10.73
2018-07-17T00:57:36.587Z,10.47
2018-07-17T01:00:06.128Z,10.50
2018-07-17T01:02:40.140Z,9.27
2018-07-17T01:05:14.339Z,10.67
2018-07-17T01:07:48.814Z,11.17
2018-07-17T01:10:22.882Z,10.47
2018-07-17T01:12:51.281Z,11.03
2018-07-17T01:15:50.605Z,11.17
2018-07-17T01:18:19.917Z,10.60
2018-07-17T01:20:48.934Z,10.50
2018-07-17T01:23:18.064Z,11.10
2018-07-17T01:25:47.657Z,11.20
2018-07-17T01:28:16.787Z,10.53
2018-07-17T01:30:45.793Z,10.00
2018-07-17T01:33:14.889Z,11.47
2018-07-17T01:35:43.991Z,10.50
2018-07-17T01:38:12.963Z,10.00
2018-07-17T01:40:42.135Z,10.20
2018-07-17T01:43:11.300Z,10.70
2018-07-17T01:45:40.445Z,10.90
2018-07-17T01:48:09.479Z,11.33
2018-07-17T01:50:38.400Z,11.73
2018-07-17T01:53:07.379Z,11.37
2018-07-17T01:55:36.556Z,11.67
2018-07-17T01:58:05.622Z,10.47
2018-07-17T02:00:34.664Z,11.27
2018-07-17T02:03:04.071Z,11.13
2018-07-17T02:05:32.997Z,11.27
2018-07-17T02:08:02.110Z,11.47
2018-07-17T02:10:31.428Z,10.97
2018-07-17T02:13:00.520Z,10.83
2018-07-17T02:15:29.607Z,11.00
2018-07-17T02:17:58.763Z,10.50
2018-07-17T02:20:27.795Z,11.03
2018-07-17T02:22:56.848Z,11.13
2018-07-17T02:25:26.309Z,11.87
2018-07-17T02:27:55.317Z,11.60
2018-07-17T02:30:24.276Z,11.33
2018-07-17T02:32:53.887Z,12.00
2018-07-17T02:35:22.893Z,11.67
2018-07-17T02:37:51.922Z,11.27
2018-07-17T02:40:24.895Z,14.63
2018-07-17T02:42:54.109Z,11.23
2018-07-17T02:45:23.297Z,12.83
2018-07-17T02:47:52.367Z,11.33
2018-07-17T02:50:21.820Z,12.60
2018-07-17T02:52:51.092Z,12.13
2018-07-17T02:55:26.755Z,12.87
2018-07-17T02:57:56.224Z,11.67
2018-07-17T03:00:26.527Z,12.00
2018-07-17T03:02:55.432Z,11.90
2018-07-17T03:05:24.273Z,11.93
2018-07-17T03:07:54.246Z,11.47
2018-07-17T03:10:23.731Z,11.67
2018-07-17T03:12:56.441Z,11.90
2018-07-17T03:15:25.886Z,11.13
2018-07-17T03:17:54.985Z,11.30
2018-07-17T03:20:24.096Z,12.17
2018-07-17T03:22:53.052Z,11.83
2018-07-17T03:25:23.138Z,11.17
2018-07-17T03:27:53.716Z,11.60
2018-07-17T03:30:22.724Z,12.77
2018-07-17T03:32:51.667Z,19.37
2018-07-17T03:35:20.860Z,18.00
2018-07-17T03:37:49.894Z,14.50
2018-07-17T03:40:18.906Z,11.83
2018-07-17T03:42:48.488Z,12.63
2018-07-17T03:45:17.465Z,12.87
2018-07-17T03:47:46.485Z,14.07
2018-07-17T03:50:15.781Z,11.67
2018-07-17T03:52:44.955Z,11.37
2018-07-17T03:55:14.116Z,11.00
2018-07-17T03:57:43.096Z,11.67
2018-07-17T04:00:12.191Z,11.07
2018-07-17T04:02:41.438Z,29.37
2018-07-17T04:05:10.436Z,19.97
2018-07-17T04:07:39.458Z,14.17
2018-07-17T04:10:08.628Z,12.37
2018-07-17T04:12:37.575Z,19.47
2018-07-17T04:15:06.581Z,12.93
2018-07-17T04:17:35.624Z,39.93
2018-07-17T04:20:05.316Z,16.73
2018-07-17T04:22:34.436Z,12.03
2018-07-17T04:25:03.654Z,14.50
2018-07-17T04:27:32.876Z,12.30
2018-07-17T04:30:01.882Z,11.70
2018-07-17T04:32:31.090Z,11.40
2018-07-17T04:35:00.358Z,10.60
2018-07-17T04:37:29.457Z,10.00
2018-07-17T04:39:58.587Z,10.30
2018-07-17T04:42:27.595Z,9.93
2018-07-17T04:44:56.829Z,9.93
2018-07-17T04:47:25.818Z,10.58
2018-07-17T04:49:55.239Z,10.85
2018-07-17T04:52:24.529Z,10.32
2018-07-17T04:54:53.588Z,8.85
2018-07-17T04:57:22.790Z,9.38
2018-07-17T04:59:51.854Z,9.20
2018-07-17T05:02:20.995Z,8.30
2018-07-17T05:04:50.126Z,7.65
2018-07-17T05:07:19.149Z,7.87
2018-07-17T05:09:48.255Z,7.45
2018-07-17T05:12:17.563Z,7.75
2018-07-17T05:14:47.568Z,6.87
2018-07-17T05:17:16.530Z,7.67
2018-07-17T05:19:45.706Z,7.47
2018-07-17T05:22:14.630Z,7.10
2018-07-17T05:24:43.872Z,7.30
2018-07-17T05:27:12.983Z,7.35
2018-07-17T05:29:41.958Z,7.40
2018-07-17T05:32:11.673Z,7.50
2018-07-17T05:34:40.912Z,6.22
2018-07-17T05:37:09.895Z,6.72
2018-07-17T05:39:39.025Z,6.72
2018-07-17T05:42:08.258Z,7.35
2018-07-17T05:44:37.625Z,7.87
2018-07-17T05:47:06.836Z,7.12
2018-07-17T05:49:36.591Z,7.45
2018-07-17T05:52:05.701Z,6.62
2018-07-17T05:54:34.630Z,7.60
2018-07-17T05:57:04.178Z,8.00
2018-07-17T05:59:33.187Z,8.45
2018-07-17T06:02:02.292Z,7.72
2018-07-17T06:04:31.671Z,7.22
2018-07-17T06:07:00.662Z,7.78
2018-07-17T06:09:29.796Z,9.78
2018-07-17T06:11:58.806Z,7.10
2018-07-17T06:14:27.889Z,7.60
2018-07-17T06:16:57.056Z,7.70
2018-07-17T06:19:26.139Z,6.60
2018-07-17T06:21:55.129Z,7.30
2018-07-17T06:24:24.039Z,8.33
2018-07-17T06:26:53.203Z,7.95
2018-07-17T06:29:22.740Z,7.97
2018-07-17T06:31:51.775Z,7.67
2018-07-17T06:34:21.414Z,7.95
2018-07-17T06:36:50.440Z,8.03
2018-07-17T06:39:19.514Z,8.53
2018-07-17T06:41:48.675Z,9.15
2018-07-17T06:44:17.621Z,8.35
2018-07-17T06:46:46.783Z,8.00
2018-07-17T06:49:16.172Z,8.90
2018-07-17T06:51:45.132Z,7.70
2018-07-17T06:54:14.155Z,7.90
2018-07-17T06:56:43.275Z,8.73
2018-07-17T06:59:12.499Z,8.73
2018-07-17T07:01:41.363Z,8.60
2018-07-17T07:04:10.481Z,8.93
2018-07-17T07:06:39.483Z,7.87
2018-07-17T07:09:09.982Z,9.18
2018-07-17T07:11:39.650Z,9.55
2018-07-17T07:14:08.559Z,9.33
2018-07-17T07:16:37.556Z,8.25
2018-07-17T07:19:07.237Z,8.50
2018-07-17T07:21:36.248Z,8.48
2018-07-17T07:24:05.422Z,8.65
2018-07-17T07:26:34.502Z,8.20
2018-07-17T07:29:03.562Z,8.45
2018-07-17T07:31:32.676Z,8.65
2018-07-17T07:34:01.714Z,8.53
2018-07-17T07:36:30.812Z,8.65
2018-07-17T07:38:59.804Z,8.73
2018-07-17T07:41:28.894Z,9.33
2018-07-17T07:43:58.307Z,8.30
2018-07-17T07:46:27.424Z,8.50
2018-07-17T07:48:56.760Z,9.08
2018-07-17T07:51:25.831Z,8.95
2018-07-17T07:53:54.937Z,9.18
2018-07-17T07:56:24.330Z,9.10
2018-07-17T08:05:38.701Z,9.75
2018-07-17T08:08:07.639Z,9.68
2018-07-17T08:12:06.477Z,8.60
2018-07-17T08:14:35.631Z,9.13
2018-07-17T08:18:07.344Z,8.25
2018-07-17T08:20:36.361Z,7.85
2018-07-17T08:23:05.293Z,8.68
2018-07-17T08:25:34.524Z,8.25
2018-07-17T08:28:03.494Z,8.75
2018-07-17T08:30:32.527Z,8.70
2018-07-17T08:33:02.016Z,8.28
2018-07-17T08:35:30.848Z,8.43
2018-07-17T08:37:59.847Z,8.80
2018-07-17T08:40:29.005Z,8.00
2018-07-17T08:42:57.903Z,8.68
2018-07-17T08:45:26.864Z,11.03
2018-07-17T08:47:56.144Z,9.90
2018-07-17T08:50:25.063Z,8.20
2018-07-17T08:52:54.019Z,9.70
2018-07-17T08:55:23.244Z,8.40
2018-07-17T08:57:52.160Z,8.70
2018-07-17T09:00:21.331Z,8.80
2018-07-17T09:02:50.937Z,9.15
2018-07-17T09:05:19.864Z,7.62
2018-07-17T09:07:48.958Z,8.65
2018-07-17T09:10:18.797Z,7.53
2018-07-17T09:12:47.752Z,8.43
2018-07-17T09:15:16.782Z,7.85
2018-07-17T09:17:45.762Z,8.58
2018-07-17T09:20:14.874Z,9.55
2018-07-17T09:22:43.883Z,9.68
2018-07-17T09:25:13.558Z,8.88
2018-07-17T09:27:42.614Z,9.00
2018-07-17T09:30:11.724Z,8.35
2018-07-17T09:32:41.266Z,4.87
2018-07-17T09:35:10.267Z,2.65
2018-07-17T09:37:39.354Z,6.72
2018-07-17T09:40:08.787Z,2.45
2018-07-17T09:42:37.993Z,2.00
2018-07-17T09:45:07.351Z,2.42
2018-07-17T09:47:36.239Z,2.90
2018-07-17T09:50:05.188Z,2.93
2018-07-17T09:52:34.200Z,2.52
2018-07-17T09:55:03.510Z,1.80
2018-07-17T09:57:32.460Z,2.53
2018-07-17T10:00:01.522Z,2.67
2018-07-17T10:02:32.025Z,2.57
2018-07-17T10:05:01.191Z,2.30
2018-07-17T10:07:30.168Z,2.53
2018-07-17T10:09:59.385Z,3.40
2018-07-17T10:12:28.435Z,3.73
2018-07-17T10:14:57.568Z,4.03
2018-07-17T10:18:29.854Z,3.67
2018-07-17T10:20:58.807Z,5.47
2018-07-17T10:23:28.063Z,6.53
2018-07-17T10:25:57.342Z,4.10
2018-07-17T10:28:26.327Z,4.60
2018-07-17T10:30:55.391Z,4.10
2018-07-17T10:33:24.537Z,4.40
2018-07-17T10:35:53.651Z,4.60
2018-07-17T10:38:22.627Z,4.00
2018-07-17T10:40:51.770Z,4.23
2018-07-17T10:43:20.861Z,3.30
2018-07-17T10:45:49.888Z,3.07
2018-07-17T10:48:19.093Z,3.60
2018-07-17T10:50:48.111Z,3.10
2018-07-17T10:53:17.250Z,2.30
2018-07-17T10:55:46.662Z,2.58
2018-07-17T10:58:15.619Z,2.10
2018-07-17T11:00:44.696Z,2.30
2018-07-17T11:03:13.868Z,2.50
2018-07-17T11:05:43.956Z,2.52
2018-07-17T11:08:13.344Z,3.08
2018-07-17T11:10:42.372Z,2.40
2018-07-17T11:13:11.456Z,4.05
2018-07-17T11:15:40.667Z,2.95
2018-07-17T11:18:09.686Z,2.00
2018-07-17T11:20:38.637Z,2.30
2018-07-17T11:23:07.622Z,2.90
2018-07-17T11:25:36.638Z,2.80
2018-07-17T11:34:50.998Z,2.58
2018-07-17T11:37:20.132Z,2.27
2018-07-17T11:39:49.210Z,2.40
2018-07-17T11:42:18.893Z,2.75
2018-07-17T11:44:47.898Z,2.55
2018-07-17T11:47:17.004Z,2.58
2018-07-17T11:49:46.354Z,2.92
2018-07-17T11:52:15.280Z,2.15
2018-07-17T11:54:44.417Z,2.80
2018-07-17T11:57:13.702Z,2.40
2018-07-17T11:59:42.731Z,2.65
2018-07-17T12:02:11.896Z,2.90
2018-07-17T12:04:41.529Z,2.77
2018-07-17T12:07:10.481Z,2.72
2018-07-17T12:09:39.524Z,2.47
2018-07-17T12:12:08.792Z,2.65
2018-07-17T12:14:37.755Z,2.85
2018-07-17T12:17:06.820Z,3.00
2018-07-17T12:19:36.345Z,2.62
2018-07-17T12:22:05.511Z,2.80
2018-07-17T12:24:34.779Z,2.83
2018-07-17T12:27:04.094Z,2.67
2018-07-17T12:29:33.092Z,3.20
2018-07-17T12:32:02.460Z,2.62
2018-07-17T12:34:31.718Z,2.67
2018-07-17T12:37:00.845Z,2.50
2018-07-17T12:39:29.898Z,2.92
2018-07-17T12:41:59.450Z,2.40
2018-07-17T12:44:28.570Z,2.58
2018-07-17T12:46:57.659Z,3.35
2018-07-17T12:49:26.859Z,3.10
2018-07-17T12:51:55.922Z,3.00
2018-07-17T12:54:24.926Z,2.75
2018-07-17T12:56:54.491Z,3.10
2018-07-17T12:59:23.445Z,3.20
2018-07-17T13:01:52.299Z,2.98
2018-07-17T13:04:34.676Z,2.70
2018-07-17T13:07:03.702Z,2.83
2018-07-17T13:09:32.827Z,2.55
2018-07-17T13:12:02.077Z,3.20
2018-07-17T13:14:31.129Z,2.90
2018-07-17T13:17:00.218Z,3.27
2018-07-17T13:19:29.609Z,2.60
2018-07-17T13:21:58.532Z,3.67
2018-07-17T13:24:27.416Z,3.67
2018-07-17T13:26:57.614Z,2.85
2018-07-17T13:29:26.685Z,3.40
2018-07-17T13:31:55.815Z,3.20
2018-07-17T13:34:25.455Z,3.58
2018-07-17T13:36:54.489Z,3.12
2018-07-17T13:39:23.484Z,3.40
2018-07-17T13:41:52.654Z,3.15
2018-07-17T13:44:21.817Z,3.30
2018-07-17T13:46:50.918Z,2.85
2018-07-17T13:49:20.089Z,2.80
2018-07-17T13:51:49.295Z,3.00
2018-07-17T13:54:18.405Z,3.10
2018-07-17T13:56:47.508Z,3.02
2018-07-17T13:59:16.447Z,2.52
2018-07-17T14:01:45.652Z,2.80
2018-07-17T14:04:15.380Z,2.60
2018-07-17T14:06:44.408Z,3.15
2018-07-17T14:09:15.617Z,3.20
2018-07-17T14:11:44.820Z,2.40
2018-07-17T14:14:14.451Z,2.45
2018-07-17T14:16:43.826Z,2.70
2018-07-17T14:19:12.828Z,3.47
2018-07-17T14:21:49.124Z,3.30
2018-07-17T14:24:18.213Z,3.33
2018-07-17T14:26:47.590Z,2.80
2018-07-17T14:29:16.658Z,2.72
2018-07-17T14:31:46.680Z,3.12
2018-07-17T14:34:15.608Z,3.30
2018-07-17T14:36:45.316Z,3.30
2018-07-17T14:39:14.514Z,2.83
2018-07-17T14:41:43.752Z,3.30
2018-07-17T14:44:12.932Z,3.17
2018-07-17T14:46:41.873Z,2.85
2018-07-17T14:49:10.803Z,3.52
2018-07-17T14:51:39.911Z,2.52
2018-07-17T14:54:09.031Z,4.67
2018-07-17T14:56:38.066Z,3.92
2018-07-17T14:59:07.321Z,6.80
2018-07-17T15:01:36.351Z,3.52
2018-07-17T15:04:05.350Z,3.10
2018-07-17T15:06:34.730Z,2.72
2018-07-17T15:09:08.755Z,3.25
2018-07-17T15:11:37.972Z,3.30
2018-07-17T15:14:07.103Z,2.92
2018-07-17T15:16:36.224Z,3.17
2018-07-17T15:19:05.767Z,4.37
2018-07-17T15:21:34.808Z,5.90
2018-07-17T15:24:03.804Z,4.97
2018-07-17T15:26:33.029Z,3.40
2018-07-17T15:29:01.999Z,3.25
2018-07-17T15:31:31.228Z,3.00
2018-07-17T15:34:00.267Z,4.08
2018-07-17T15:36:29.292Z,4.28
2018-07-17T15:38:58.383Z,3.52
2018-07-17T15:41:27.423Z,3.50
2018-07-17T15:43:56.482Z,3.22
2018-07-17T15:46:25.469Z,3.30
2018-07-17T15:48:54.658Z,3.47
2018-07-17T15:51:23.663Z,3.22
2018-07-17T15:53:52.747Z,3.05
2018-07-17T15:56:22.166Z,3.37
2018-07-17T15:58:51.075Z,4.53
2018-07-17T16:01:20.152Z,3.67
2018-07-17T16:03:49.208Z,3.77
2018-07-17T16:06:18.238Z,4.60
2018-07-17T16:08:47.500Z,4.40
2018-07-17T16:11:16.772Z,3.95
2018-07-17T16:13:46.146Z,4.60
2018-07-17T16:16:15.145Z,4.00
2018-07-17T16:18:44.312Z,4.33
2018-07-17T16:21:13.503Z,4.25
2018-07-17T16:23:42.596Z,4.50
2018-07-17T16:26:12.101Z,4.20
2018-07-17T16:28:41.087Z,4.08
2018-07-17T16:31:10.159Z,4.42
2018-07-17T16:33:39.435Z,4.22
2018-07-17T16:36:08.607Z,5.28
2018-07-17T16:38:37.652Z,4.70
2018-07-17T16:41:07.495Z,5.40
2018-07-17T16:43:36.430Z,5.20
2018-07-17T16:46:05.712Z,5.65
2018-07-17T16:48:34.899Z,5.15
2018-07-17T16:51:03.980Z,6.03
2018-07-17T16:53:32.997Z,9.73
2018-07-17T16:56:02.281Z,7.53
2018-07-17T16:58:31.411Z,5.22
2018-07-17T17:01:00.580Z,6.60
2018-07-17T17:03:29.835Z,5.67
2018-07-17T17:05:58.904Z,5.70
2018-07-17T17:08:28.131Z,5.60
2018-07-17T17:10:57.303Z,5.97
2018-07-17T17:13:26.272Z,6.25
2018-07-17T17:15:55.143Z,6.05
2018-07-17T17:18:24.672Z,10.28
2018-07-17T17:20:53.713Z,6.47
2018-07-17T17:23:22.670Z,7.00
2018-07-17T17:25:51.669Z,11.93
2018-07-17T17:28:20.759Z,7.92
2018-07-17T17:30:49.862Z,9.00
2018-07-17T17:33:19.243Z,16.25
2018-07-17T17:35:48.270Z,8.78
2018-07-17T17:38:17.262Z,6.75
2018-07-17T17:40:46.575Z,8.40
2018-07-17T17:43:15.739Z,5.92
2018-07-17T17:45:44.881Z,5.65
2018-07-17T17:48:13.972Z,6.25
2018-07-17T17:50:43.032Z,5.65
2018-07-17T17:53:12.121Z,5.75
2018-07-17T17:55:41.328Z,5.15
2018-07-17T17:58:10.447Z,4.45
2018-07-17T18:00:39.569Z,7.28
2018-07-17T18:03:08.599Z,9.48
2018-07-17T18:05:37.720Z,8.18
2018-07-17T18:08:06.987Z,8.98
2018-07-17T18:10:36.181Z,11.33
2018-07-17T18:13:05.148Z,18.65
2018-07-17T18:15:34.063Z,8.88
2018-07-17T18:18:03.679Z,5.60
2018-07-17T18:21:35.419Z,4.92
2018-07-17T18:24:05.405Z,5.35
2018-07-17T18:26:34.322Z,7.55
2018-07-17T18:29:03.257Z,6.15
2018-07-17T18:31:32.388Z,5.60
2018-07-17T18:34:01.515Z,5.08
2018-07-17T18:36:30.882Z,4.53
2018-07-17T18:39:00.364Z,5.45
2018-07-17T18:41:29.455Z,9.28
2018-07-17T18:43:58.538Z,5.55
2018-07-17T18:46:28.046Z,5.90
2018-07-17T18:48:56.959Z,5.60
2018-07-17T18:51:25.860Z,4.40
2018-07-17T18:53:55.072Z,10.75
2018-07-17T18:56:24.152Z,13.05
2018-07-17T18:58:53.186Z,27.13
2018-07-17T19:01:22.226Z,13.03
2018-07-17T19:03:51.372Z,33.50
2018-07-17T19:06:20.535Z,12.68
2018-07-17T19:08:49.762Z,10.20
2018-07-17T19:11:18.926Z,9.83
2018-07-17T19:13:47.931Z,5.25
2018-07-17T19:16:17.142Z,4.70
2018-07-17T19:18:47.170Z,5.70
2018-07-17T19:21:17.362Z,5.87
2018-07-17T19:23:46.446Z,6.75
2018-07-17T19:26:15.458Z,6.62
2018-07-17T19:28:44.712Z,5.85
2018-07-17T19:31:13.606Z,6.00
2018-07-17T19:33:43.464Z,6.30
2018-07-17T19:36:12.387Z,5.75
2018-07-17T19:38:41.414Z,5.47
2018-07-17T19:41:10.758Z,5.50
2018-07-17T19:43:39.668Z,5.00
2018-07-17T19:46:08.630Z,4.58
2018-07-17T19:48:37.746Z,9.28
2018-07-17T19:51:07.349Z,5.97
2018-07-17T19:53:36.474Z,5.28
2018-07-17T19:56:05.543Z,4.20
2018-07-17T19:58:34.536Z,4.50
2018-07-17T20:01:03.645Z,4.60
2018-07-17T20:03:32.632Z,4.33
2018-07-17T20:06:01.546Z,4.47
2018-07-17T20:08:30.979Z,4.40
2018-07-17T20:10:59.904Z,5.15
2018-07-17T20:13:28.772Z,4.95
2018-07-17T20:15:58.296Z,4.53
2018-07-17T20:18:27.247Z,4.70
2018-07-17T20:20:56.349Z,4.55
2018-07-17T20:23:25.944Z,5.20
2018-07-17T20:25:55.081Z,4.33
2018-07-17T20:28:23.969Z,4.53
2018-07-17T20:30:53.258Z,4.03
2018-07-17T20:33:22.285Z,4.53
2018-07-17T20:35:51.332Z,4.45
2018-07-17T20:38:20.593Z,4.03
2018-07-17T20:40:49.715Z,4.28
2018-07-17T20:43:18.835Z,3.20
2018-07-17T20:45:47.877Z,3.83
2018-07-17T20:48:16.995Z,3.47
2018-07-17T20:50:46.138Z,3.75
2018-07-17T20:53:15.364Z,3.42
2018-07-17T20:55:44.417Z,3.70
2018-07-17T20:58:13.556Z,3.80
2018-07-17T21:00:42.728Z,3.00
2018-07-17T21:03:11.793Z,3.95
2018-07-17T21:05:40.779Z,3.80
2018-07-17T21:08:10.112Z,4.10
2018-07-17T21:10:39.070Z,3.42
2018-07-17T21:13:07.992Z,4.25
2018-07-17T21:15:37.655Z,3.40
2018-07-17T21:18:08.908Z,3.90
2018-07-17T21:20:38.185Z,3.73
2018-07-17T21:23:07.340Z,4.25
2018-07-17T21:25:36.307Z,4.30
2018-07-17T21:28:05.882Z,3.77
2018-07-17T21:30:35.012Z,3.90
2018-07-17T21:33:03.997Z,4.22
2018-07-17T21:35:33.146Z,4.33
2018-07-17T21:38:02.409Z,4.53
2018-07-17T21:40:31.384Z,5.30
2018-07-17T21:43:00.506Z,4.50
2018-07-17T21:45:29.528Z,5.00
2018-07-17T21:47:58.645Z,5.58
2018-07-17T21:50:27.692Z,5.28
2018-07-17T21:52:56.780Z,5.50
2018-07-17T21:55:25.995Z,5.50
2018-07-17T21:57:55.064Z,6.17
2018-07-17T22:00:24.087Z,6.20
2018-07-17T22:02:53.141Z,5.95
2018-07-17T22:05:23.294Z,6.95
2018-07-17T22:07:52.499Z,6.60
2018-07-17T22:10:21.468Z,6.40
2018-07-17T22:12:50.782Z,6.47
2018-07-17T22:15:19.944Z,6.85
2018-07-17T22:17:49.010Z,6.30
2018-07-17T22:20:18.071Z,6.45
2018-07-17T22:22:47.160Z,6.78
2018-07-17T22:25:16.228Z,7.62
2018-07-17T22:27:45.341Z,6.95
2018-07-17T22:30:14.449Z,7.80
2018-07-17T22:32:43.388Z,7.70
2018-07-17T22:35:13.111Z,7.20
2018-07-17T22:37:42.101Z,7.00
2018-07-17T22:40:11.257Z,8.43
2018-07-17T22:42:40.691Z,8.03
2018-07-17T22:45:09.755Z,8.70
2018-07-17T22:47:38.906Z,8.50
2018-07-17T22:50:08.175Z,8.75
2018-07-17T22:52:37.217Z,8.78
2018-07-17T22:55:06.474Z,8.43
2018-07-17T22:57:35.933Z,8.70
2018-07-17T23:00:05.142Z,8.97
2018-07-17T23:02:34.170Z,8.63
2018-07-17T23:05:03.647Z,8.53
2018-07-17T23:07:32.613Z,9.00
2018-07-17T23:10:01.913Z,9.27
2018-07-17T23:12:31.547Z,9.70
2018-07-17T23:15:00.479Z,9.77
2018-07-17T23:17:29.572Z,9.70
2018-07-17T23:19:58.720Z,9.70
2018-07-17T23:22:59.460Z,10.33
2018-07-17T23:25:29.928Z,10.10
2018-07-17T23:27:59.391Z,9.40
2018-07-17T23:30:28.478Z,10.10
2018-07-17T23:32:57.668Z,11.47
2018-07-17T23:35:26.821Z,11.03
2018-07-17T23:37:55.974Z,11.37
2018-07-17T23:40:25.408Z,11.03
2018-07-17T23:42:54.606Z,10.87
2018-07-17T23:45:23.598Z,12.00
2018-07-17T23:47:53.148Z,12.37
2018-07-17T23:50:22.289Z,11.93
2018-07-17T23:52:51.373Z,11.20
2018-07-17T23:55:20.615Z,11.90
2018-07-17T23:57:49.739Z,12.20
